Language selection

Features

My Weather Profile Weather Topics  | 

Northern Lake Huron: Past 24 Hour Conditions

 

Georgian Bay - 45137

07:00 PM EDT 14 October 2019Buoy position: 45.55N 81.0W
Disclaimer

This table is a summary of hourly weather conditions for the past 24 hours.
Please note that these observations might not always be representative of weather conditions over their associated marine area.

Date / Time
(EDT)
Wind(knots) Wave height(m) Wave period(s) Pressure(kPa) Air tempC) Water tempC)
14 October 2019
19:00 W 25 gust 31 1.2 5.0 101.4 9 13
18:00 WSW 16 gust 19 1.2 5.0 101.4 8 13
17:00 WNW 16 gust 23 1.2 5.0 101.4 7 13
16:00 WNW 23 gust 27 1.2 5.0 101.3 8 13
15:00 W 19 gust 23 1.0 5.0 101.3 8 13
14:00 W 19 gust 25 0.8 4.0 101.2 7 13
13:00 SW 16 gust 19 1.0 4.0 101.2 7 13
12:00 SW 17 gust 23 0.9 4.0 101.2 7 13
11:00 WSW 13 gust 17 0.9 4.0 101.2 7 13
10:00 W 12 gust 16 0.9 5.0 101.2 6 13
9:00 W 17 gust 33 1.0 5.0 101.1 6 13
8:00 W 17 gust 27 1.1 5.0 101.0 7 13
7:00 WNW 16 gust 27 1.1 5.0 100.9 7 13
6:00 WNW 16 gust 19 1.4 5.0 100.9 7 13
5:00 WNW 17 gust 27 1.5 5.0 100.8 7 13
4:00 WSW 22 gust 31 1.6 6.0 100.7 8 13
3:00 WSW 22 gust 27 1.6 6.0 100.7 9 13
2:00 WSW 23 gust 27 1.8 6.0 100.7 9 13
1:00 W 23 gust 29 1.8 6.0 100.7 9 13
0:00 W 22 gust 27 2.0 6.0 100.7 9 13
13 October 2019
23:00 N/A N/A N/A N/A N/A N/A
22:00 WSW 23 gust 29 1.8 6.0 100.8 9 13
21:00 WSW 25 gust 29 1.7 6.0 100.7 9 13
20:00 WSW 23 gust 29 2.0 6.0 100.7 8 13
19:00 WSW 25 gust 33 1.7 5.0 100.7 9 13

Zoom-in to make a selection

Map of Great Lakes - Lake Huron marine weather areas N Huron - 45003 W Erie - 45005 S Huron - 45008 Lake Ontario - 45012 Port Stanley - 45132 Prince Edward Point - 45135 Georgian Bay - 45137 Grimsby - 45139 Port Colborne - 45142 South Georgian Bay - 45143 Lake St Clair - 45147 South Lake Huron - 45149 Lake Simcoe - 45151 Lake Nipissing - 45152 North Channel - 45154 Ajax - 45159 Sault Ste. Marie Airport Killarney Greater Sudbury Airport North Bay Airport Gore Bay-Manitoulin Airport Great Duck Island Brockville Grenadier Island Kingston Airport Collingwood Lagoon City Muskoka Airport Parry Sound Harbour Lake Simcoe Regional Airport Wiarton Airport Western Islands Cove Island Goderich Sarnia Chris Hadfield Airport Tobermory Harrow AAFC Long Point Port Weller St. Catharines / Niagara District Airport Southeast Shoal Vineland Station Welland-Pelham Windsor Airport Port Colborne Erieau Point Pelee Burlington Lift Bridge Cobourg Hamilton Munro Int'l Airport Oshawa Executive Airport Point Petre Toronto City Centre Airport CFB Trenton Peterborough Municipal Airport
Legend:
buoy Buoy
land station Land Station

Great Lakes - Lake Huron Area

Another Region

What we are doing

Date modified: